sensor_id;sensor_type;location;lat;lon;timestamp;temperature;humidity
11615;DHT22;5863;52.832;4.758;2023-08-17T00:02:16;17.40;99.90
11615;DHT22;5863;52.832;4.758;2023-08-17T00:04:43;17.40;99.90
11615;DHT22;5863;52.832;4.758;2023-08-17T00:07:10;17.40;99.90
11615;DHT22;5863;52.832;4.758;2023-08-17T00:09:36;17.40;99.90
11615;DHT22;5863;52.832;4.758;2023-08-17T00:12:04;17.40;99.90
11615;DHT22;5863;52.832;4.758;2023-08-17T00:14:30;17.40;99.90
11615;DHT22;5863;52.832;4.758;2023-08-17T00:16:57;17.30;99.90
11615;DHT22;5863;52.832;4.758;2023-08-17T00:19:25;17.30;99.90
11615;DHT22;5863;52.832;4.758;2023-08-17T00:21:52;17.30;99.90
11615;DHT22;5863;52.832;4.758;2023-08-17T00:24:19;17.30;99.90
11615;DHT22;5863;52.832;4.758;2023-08-17T00:26:45;17.30;99.90
11615;DHT22;5863;52.832;4.758;2023-08-17T00:29:12;17.30;99.90
11615;DHT22;5863;52.832;4.758;2023-08-17T00:31:40;17.30;99.90
11615;DHT22;5863;52.832;4.758;2023-08-17T00:34:07;17.30;99.90
11615;DHT22;5863;52.832;4.758;2023-08-17T00:36:35;17.30;99.90
11615;DHT22;5863;52.832;4.758;2023-08-17T00:39:01;17.40;99.90
11615;DHT22;5863;52.832;4.758;2023-08-17T00:41:28;17.30;99.90
11615;DHT22;5863;52.832;4.758;2023-08-17T00:43:55;17.20;99.90
11615;DHT22;5863;52.832;4.758;2023-08-17T00:46:23;17.10;99.90
11615;DHT22;5863;52.832;4.758;2023-08-17T00:48:50;17.10;99.90
11615;DHT22;5863;52.832;4.758;2023-08-17T00:51:17;17.10;99.90
11615;DHT22;5863;52.832;4.758;2023-08-17T00:53:47;17.10;99.90
11615;DHT22;5863;52.832;4.758;2023-08-17T00:56:14;17.10;99.90
11615;DHT22;5863;52.832;4.758;2023-08-17T00:58:41;17.10;99.90
11615;DHT22;5863;52.832;4.758;2023-08-17T01:01:08;17.00;99.90
11615;DHT22;5863;52.832;4.758;2023-08-17T01:03:35;17.00;99.90
11615;DHT22;5863;52.832;4.758;2023-08-17T01:06:03;17.00;99.90
11615;DHT22;5863;52.832;4.758;2023-08-17T01:08:29;17.00;99.90
11615;DHT22;5863;52.832;4.758;2023-08-17T01:11:02;17.00;99.90
11615;DHT22;5863;52.832;4.758;2023-08-17T01:13:35;17.00;99.90
11615;DHT22;5863;52.832;4.758;2023-08-17T01:16:06;16.90;99.90
11615;DHT22;5863;52.832;4.758;2023-08-17T01:18:37;16.80;99.90
11615;DHT22;5863;52.832;4.758;2023-08-17T01:21:06;16.90;99.90
11615;DHT22;5863;52.832;4.758;2023-08-17T01:23:34;16.90;99.90
11615;DHT22;5863;52.832;4.758;2023-08-17T01:26:01;16.90;99.90
11615;DHT22;5863;52.832;4.758;2023-08-17T01:28:28;16.90;99.90
11615;DHT22;5863;52.832;4.758;2023-08-17T01:30:57;16.90;99.90
11615;DHT22;5863;52.832;4.758;2023-08-17T01:33:27;16.90;99.90
11615;DHT22;5863;52.832;4.758;2023-08-17T01:36:03;16.80;99.90
11615;DHT22;5863;52.832;4.758;2023-08-17T01:38:33;16.80;99.90
11615;DHT22;5863;52.832;4.758;2023-08-17T01:41:02;16.80;99.90
11615;DHT22;5863;52.832;4.758;2023-08-17T01:43:30;16.90;99.90
11615;DHT22;5863;52.832;4.758;2023-08-17T01:45:59;16.90;99.90
11615;DHT22;5863;52.832;4.758;2023-08-17T01:48:25;16.90;99.90
11615;DHT22;5863;52.832;4.758;2023-08-17T01:50:52;17.00;99.90
11615;DHT22;5863;52.832;4.758;2023-08-17T01:53:19;16.90;99.90
11615;DHT22;5863;52.832;4.758;2023-08-17T01:55:47;16.90;99.90
11615;DHT22;5863;52.832;4.758;2023-08-17T01:58:13;16.90;99.90
11615;DHT22;5863;52.832;4.758;2023-08-17T02:00:40;16.90;99.90
11615;DHT22;5863;52.832;4.758;2023-08-17T02:03:07;16.90;99.90
11615;DHT22;5863;52.832;4.758;2023-08-17T02:05:33;16.90;99.90
11615;DHT22;5863;52.832;4.758;2023-08-17T02:08:00;16.90;99.90
11615;DHT22;5863;52.832;4.758;2023-08-17T02:10:27;16.90;99.90
11615;DHT22;5863;52.832;4.758;2023-08-17T02:12:55;16.80;99.90
11615;DHT22;5863;52.832;4.758;2023-08-17T02:15:21;16.80;99.90
11615;DHT22;5863;52.832;4.758;2023-08-17T02:17:48;16.80;99.90
11615;DHT22;5863;52.832;4.758;2023-08-17T02:20:15;16.70;99.90
11615;DHT22;5863;52.832;4.758;2023-08-17T02:22:41;16.70;99.90
11615;DHT22;5863;52.832;4.758;2023-08-17T02:25:08;16.60;99.90
11615;DHT22;5863;52.832;4.758;2023-08-17T02:27:35;16.60;99.90
11615;DHT22;5863;52.832;4.758;2023-08-17T02:30:03;16.60;99.90
11615;DHT22;5863;52.832;4.758;2023-08-17T02:32:30;16.60;99.90
11615;DHT22;5863;52.832;4.758;2023-08-17T02:34:57;16.70;99.90
11615;DHT22;5863;52.832;4.758;2023-08-17T02:37:23;16.80;99.90
11615;DHT22;5863;52.832;4.758;2023-08-17T02:39:50;16.80;99.90
11615;DHT22;5863;52.832;4.758;2023-08-17T02:42:17;16.80;99.90
11615;DHT22;5863;52.832;4.758;2023-08-17T02:44:43;16.80;99.90
11615;DHT22;5863;52.832;4.758;2023-08-17T02:47:11;16.80;99.90
11615;DHT22;5863;52.832;4.758;2023-08-17T02:49:38;16.80;99.90
11615;DHT22;5863;52.832;4.758;2023-08-17T02:52:05;16.80;99.90
11615;DHT22;5863;52.832;4.758;2023-08-17T02:54:32;16.70;99.90
11615;DHT22;5863;52.832;4.758;2023-08-17T02:56:59;16.70;99.90
11615;DHT22;5863;52.832;4.758;2023-08-17T02:59:26;16.60;99.90
11615;DHT22;5863;52.832;4.758;2023-08-17T03:01:53;16.70;99.90
11615;DHT22;5863;52.832;4.758;2023-08-17T03:04:22;16.70;99.90
11615;DHT22;5863;52.832;4.758;2023-08-17T03:06:49;16.70;99.90
11615;DHT22;5863;52.832;4.758;2023-08-17T03:09:16;16.70;99.90
11615;DHT22;5863;52.832;4.758;2023-08-17T03:11:43;16.70;99.90
11615;DHT22;5863;52.832;4.758;2023-08-17T03:14:09;16.70;99.90
11615;DHT22;5863;52.832;4.758;2023-08-17T03:16:36;16.70;99.90
11615;DHT22;5863;52.832;4.758;2023-08-17T03:19:03;16.60;99.90
11615;DHT22;5863;52.832;4.758;2023-08-17T03:21:31;16.60;99.90
11615;DHT22;5863;52.832;4.758;2023-08-17T03:23:58;16.60;99.90
11615;DHT22;5863;52.832;4.758;2023-08-17T03:26:25;16.70;99.90
11615;DHT22;5863;52.832;4.758;2023-08-17T03:28:51;16.70;99.90
11615;DHT22;5863;52.832;4.758;2023-08-17T03:31:20;16.60;99.90
11615;DHT22;5863;52.832;4.758;2023-08-17T03:33:47;16.70;99.90
11615;DHT22;5863;52.832;4.758;2023-08-17T03:36:14;16.60;99.90
11615;DHT22;5863;52.832;4.758;2023-08-17T03:38:42;16.70;99.90
11615;DHT22;5863;52.832;4.758;2023-08-17T03:41:09;16.60;99.90
11615;DHT22;5863;52.832;4.758;2023-08-17T03:43:35;16.60;99.90
11615;DHT22;5863;52.832;4.758;2023-08-17T03:46:04;16.50;99.90
11615;DHT22;5863;52.832;4.758;2023-08-17T03:48:31;16.50;99.90
11615;DHT22;5863;52.832;4.758;2023-08-17T03:50:58;16.50;99.90
11615;DHT22;5863;52.832;4.758;2023-08-17T03:53:24;16.40;99.90
11615;DHT22;5863;52.832;4.758;2023-08-17T03:55:52;16.40;99.90
11615;DHT22;5863;52.832;4.758;2023-08-17T03:58:19;16.40;99.90
11615;DHT22;5863;52.832;4.758;2023-08-17T04:00:49;16.40;99.90
11615;DHT22;5863;52.832;4.758;2023-08-17T04:03:15;16.50;99.90
11615;DHT22;5863;52.832;4.758;2023-08-17T04:05:42;16.50;99.90
11615;DHT22;5863;52.832;4.758;2023-08-17T04:08:09;16.50;99.90
11615;DHT22;5863;52.832;4.758;2023-08-17T04:10:35;16.40;99.90
11615;DHT22;5863;52.832;4.758;2023-08-17T04:13:03;16.50;99.90
11615;DHT22;5863;52.832;4.758;2023-08-17T04:15:30;16.50;99.90
11615;DHT22;5863;52.832;4.758;2023-08-17T04:17:57;16.50;99.90
11615;DHT22;5863;52.832;4.758;2023-08-17T04:20:23;16.50;99.90
11615;DHT22;5863;52.832;4.758;2023-08-17T04:22:51;16.50;99.90
11615;DHT22;5863;52.832;4.758;2023-08-17T04:25:18;16.50;99.90
11615;DHT22;5863;52.832;4.758;2023-08-17T04:27:44;16.40;99.90
11615;DHT22;5863;52.832;4.758;2023-08-17T04:30:13;16.40;99.90
11615;DHT22;5863;52.832;4.758;2023-08-17T04:32:39;16.40;99.90
11615;DHT22;5863;52.832;4.758;2023-08-17T04:35:06;16.50;99.90
11615;DHT22;5863;52.832;4.758;2023-08-17T04:37:33;16.50;99.90
11615;DHT22;5863;52.832;4.758;2023-08-17T04:40:00;16.50;99.90
11615;DHT22;5863;52.832;4.758;2023-08-17T04:42:27;16.50;99.90
11615;DHT22;5863;52.832;4.758;2023-08-17T04:44:53;16.50;99.90
11615;DHT22;5863;52.832;4.758;2023-08-17T04:47:21;16.50;99.90
11615;DHT22;5863;52.832;4.758;2023-08-17T04:49:48;16.50;99.90
11615;DHT22;5863;52.832;4.758;2023-08-17T04:52:15;16.50;99.90
11615;DHT22;5863;52.832;4.758;2023-08-17T04:54:42;16.50;99.90
11615;DHT22;5863;52.832;4.758;2023-08-17T04:57:08;16.60;99.90
11615;DHT22;5863;52.832;4.758;2023-08-17T04:59:36;16.60;99.90
11615;DHT22;5863;52.832;4.758;2023-08-17T05:02:02;16.80;99.90
11615;DHT22;5863;52.832;4.758;2023-08-17T05:04:30;17.00;99.90
11615;DHT22;5863;52.832;4.758;2023-08-17T05:06:57;17.10;99.90
11615;DHT22;5863;52.832;4.758;2023-08-17T05:09:24;17.20;99.90
11615;DHT22;5863;52.832;4.758;2023-08-17T05:11:50;17.20;99.90
11615;DHT22;5863;52.832;4.758;2023-08-17T05:14:17;17.30;99.90
11615;DHT22;5863;52.832;4.758;2023-08-17T05:16:44;17.30;99.90
11615;DHT22;5863;52.832;4.758;2023-08-17T05:19:10;17.50;99.90
11615;DHT22;5863;52.832;4.758;2023-08-17T05:21:38;17.70;99.90
11615;DHT22;5863;52.832;4.758;2023-08-17T05:24:05;18.00;99.90
11615;DHT22;5863;52.832;4.758;2023-08-17T05:26:32;18.30;99.90
11615;DHT22;5863;52.832;4.758;2023-08-17T05:28:59;18.50;99.90
11615;DHT22;5863;52.832;4.758;2023-08-17T05:31:26;18.60;99.90
11615;DHT22;5863;52.832;4.758;2023-08-17T05:33:52;18.70;99.90
11615;DHT22;5863;52.832;4.758;2023-08-17T05:36:19;18.80;99.90
11615;DHT22;5863;52.832;4.758;2023-08-17T05:38:47;19.20;99.90
11615;DHT22;5863;52.832;4.758;2023-08-17T05:41:13;19.50;99.90
11615;DHT22;5863;52.832;4.758;2023-08-17T05:43:42;19.80;99.90
11615;DHT22;5863;52.832;4.758;2023-08-17T05:46:08;20.10;99.90
11615;DHT22;5863;52.832;4.758;2023-08-17T05:48:35;20.30;99.90
11615;DHT22;5863;52.832;4.758;2023-08-17T05:51:02;20.70;99.90
11615;DHT22;5863;52.832;4.758;2023-08-17T05:53:28;20.90;99.90
11615;DHT22;5863;52.832;4.758;2023-08-17T05:55:56;21.10;99.90
11615;DHT22;5863;52.832;4.758;2023-08-17T05:58:23;21.40;99.90
11615;DHT22;5863;52.832;4.758;2023-08-17T06:00:50;21.50;99.90
11615;DHT22;5863;52.832;4.758;2023-08-17T06:03:16;21.70;99.90
11615;DHT22;5863;52.832;4.758;2023-08-17T06:05:43;21.90;99.90
11615;DHT22;5863;52.832;4.758;2023-08-17T06:08:10;22.10;99.90
11615;DHT22;5863;52.832;4.758;2023-08-17T06:10:37;22.20;99.90
11615;DHT22;5863;52.832;4.758;2023-08-17T06:13:05;22.40;99.90
11615;DHT22;5863;52.832;4.758;2023-08-17T06:15:31;22.50;99.90
11615;DHT22;5863;52.832;4.758;2023-08-17T06:17:58;22.60;99.90
11615;DHT22;5863;52.832;4.758;2023-08-17T06:20:25;22.70;99.90
11615;DHT22;5863;52.832;4.758;2023-08-17T06:22:51;22.70;99.90
11615;DHT22;5863;52.832;4.758;2023-08-17T06:25:18;22.90;99.90
11615;DHT22;5863;52.832;4.758;2023-08-17T06:27:45;23.20;99.90
11615;DHT22;5863;52.832;4.758;2023-08-17T06:30:13;23.50;99.90
11615;DHT22;5863;52.832;4.758;2023-08-17T06:32:41;23.40;99.90
11615;DHT22;5863;52.832;4.758;2023-08-17T06:35:08;23.50;99.90
11615;DHT22;5863;52.832;4.758;2023-08-17T06:37:35;23.70;99.90
11615;DHT22;5863;52.832;4.758;2023-08-17T06:40:03;23.80;99.90
11615;DHT22;5863;52.832;4.758;2023-08-17T06:42:31;23.80;99.90
11615;DHT22;5863;52.832;4.758;2023-08-17T06:44:58;23.80;99.90
11615;DHT22;5863;52.832;4.758;2023-08-17T06:47:26;24.00;99.90
11615;DHT22;5863;52.832;4.758;2023-08-17T06:49:54;24.20;99.90
11615;DHT22;5863;52.832;4.758;2023-08-17T06:52:20;23.90;99.90
11615;DHT22;5863;52.832;4.758;2023-08-17T06:54:47;23.70;99.90
11615;DHT22;5863;52.832;4.758;2023-08-17T06:57:14;23.70;99.90
11615;DHT22;5863;52.832;4.758;2023-08-17T06:59:40;23.80;99.90
11615;DHT22;5863;52.832;4.758;2023-08-17T07:02:07;24.00;99.90
11615;DHT22;5863;52.832;4.758;2023-08-17T07:04:35;24.40;99.90
11615;DHT22;5863;52.832;4.758;2023-08-17T07:07:02;24.50;99.90
11615;DHT22;5863;52.832;4.758;2023-08-17T07:09:28;24.50;99.80
11615;DHT22;5863;52.832;4.758;2023-08-17T07:11:55;24.50;99.90
11615;DHT22;5863;52.832;4.758;2023-08-17T07:14:22;24.40;99.90
11615;DHT22;5863;52.832;4.758;2023-08-17T07:16:50;24.20;99.70
11615;DHT22;5863;52.832;4.758;2023-08-17T07:19:17;24.30;99.70
11615;DHT22;5863;52.832;4.758;2023-08-17T07:21:45;24.30;99.40
11615;DHT22;5863;52.832;4.758;2023-08-17T07:24:12;24.40;99.10
11615;DHT22;5863;52.832;4.758;2023-08-17T07:26:39;24.70;99.20
11615;DHT22;5863;52.832;4.758;2023-08-17T07:29:06;24.90;98.70
11615;DHT22;5863;52.832;4.758;2023-08-17T07:31:33;25.10;98.30
11615;DHT22;5863;52.832;4.758;2023-08-17T07:34:03;25.10;97.90
11615;DHT22;5863;52.832;4.758;2023-08-17T07:36:30;25.50;97.90
11615;DHT22;5863;52.832;4.758;2023-08-17T07:38:58;25.50;97.50
11615;DHT22;5863;52.832;4.758;2023-08-17T07:41:25;25.80;97.60
11615;DHT22;5863;52.832;4.758;2023-08-17T07:43:51;25.70;97.20
11615;DHT22;5863;52.832;4.758;2023-08-17T07:46:18;24.90;97.60
11615;DHT22;5863;52.832;4.758;2023-08-17T07:48:45;24.40;98.50
11615;DHT22;5863;52.832;4.758;2023-08-17T07:51:12;23.40;99.50
11615;DHT22;5863;52.832;4.758;2023-08-17T07:53:39;22.90;99.90
11615;DHT22;5863;52.832;4.758;2023-08-17T07:56:07;22.50;99.90
11615;DHT22;5863;52.832;4.758;2023-08-17T07:58:33;22.10;99.90
11615;DHT22;5863;52.832;4.758;2023-08-17T08:01:00;21.90;99.90
11615;DHT22;5863;52.832;4.758;2023-08-17T08:03:27;21.80;99.90
11615;DHT22;5863;52.832;4.758;2023-08-17T08:05:53;21.90;99.90
11615;DHT22;5863;52.832;4.758;2023-08-17T08:08:20;22.20;99.90
11615;DHT22;5863;52.832;4.758;2023-08-17T08:10:47;22.50;99.90
11615;DHT22;5863;52.832;4.758;2023-08-17T08:13:15;23.00;99.90
11615;DHT22;5863;52.832;4.758;2023-08-17T08:15:41;23.10;99.90
11615;DHT22;5863;52.832;4.758;2023-08-17T08:18:08;23.30;99.90
11615;DHT22;5863;52.832;4.758;2023-08-17T08:20:35;23.70;99.90
11615;DHT22;5863;52.832;4.758;2023-08-17T08:23:02;23.80;99.90
11615;DHT22;5863;52.832;4.758;2023-08-17T08:25:28;23.50;99.90
11615;DHT22;5863;52.832;4.758;2023-08-17T08:27:55;23.00;99.90
11615;DHT22;5863;52.832;4.758;2023-08-17T08:30:23;22.60;99.90
11615;DHT22;5863;52.832;4.758;2023-08-17T08:32:50;22.30;99.90
11615;DHT22;5863;52.832;4.758;2023-08-17T08:35:17;21.70;99.90
11615;DHT22;5863;52.832;4.758;2023-08-17T08:37:43;21.60;99.90
11615;DHT22;5863;52.832;4.758;2023-08-17T08:40:11;21.30;99.90
11615;DHT22;5863;52.832;4.758;2023-08-17T08:42:38;21.20;99.90
11615;DHT22;5863;52.832;4.758;2023-08-17T08:45:06;21.00;99.90
11615;DHT22;5863;52.832;4.758;2023-08-17T08:47:36;21.00;99.90
11615;DHT22;5863;52.832;4.758;2023-08-17T08:50:04;21.00;99.90
11615;DHT22;5863;52.832;4.758;2023-08-17T08:52:34;21.00;99.90
11615;DHT22;5863;52.832;4.758;2023-08-17T08:55:09;21.10;99.90
11615;DHT22;5863;52.832;4.758;2023-08-17T08:57:36;21.20;99.90
11615;DHT22;5863;52.832;4.758;2023-08-17T09:00:04;21.30;99.90
11615;DHT22;5863;52.832;4.758;2023-08-17T09:02:34;21.40;99.90
11615;DHT22;5863;52.832;4.758;2023-08-17T09:05:02;21.50;99.90
11615;DHT22;5863;52.832;4.758;2023-08-17T09:07:29;21.60;99.90
11615;DHT22;5863;52.832;4.758;2023-08-17T09:09:56;21.50;99.90
11615;DHT22;5863;52.832;4.758;2023-08-17T09:12:25;21.40;99.90
11615;DHT22;5863;52.832;4.758;2023-08-17T09:14:52;21.40;99.90
11615;DHT22;5863;52.832;4.758;2023-08-17T09:17:23;21.40;99.90
11615;DHT22;5863;52.832;4.758;2023-08-17T09:19:51;21.30;99.90
11615;DHT22;5863;52.832;4.758;2023-08-17T09:22:22;21.30;99.90
11615;DHT22;5863;52.832;4.758;2023-08-17T09:24:49;21.20;99.90
11615;DHT22;5863;52.832;4.758;2023-08-17T09:27:17;21.20;99.90
11615;DHT22;5863;52.832;4.758;2023-08-17T09:29:43;21.20;99.90
11615;DHT22;5863;52.832;4.758;2023-08-17T09:32:11;21.10;99.90
11615;DHT22;5863;52.832;4.758;2023-08-17T09:34:41;21.20;99.90
11615;DHT22;5863;52.832;4.758;2023-08-17T09:37:12;21.20;99.90
11615;DHT22;5863;52.832;4.758;2023-08-17T09:39:39;21.30;99.90
11615;DHT22;5863;52.832;4.758;2023-08-17T09:42:06;21.30;99.90
11615;DHT22;5863;52.832;4.758;2023-08-17T09:44:33;21.30;99.90
11615;DHT22;5863;52.832;4.758;2023-08-17T09:47:01;21.30;99.90
11615;DHT22;5863;52.832;4.758;2023-08-17T09:49:31;21.30;99.90
11615;DHT22;5863;52.832;4.758;2023-08-17T09:51:59;21.20;99.90
11615;DHT22;5863;52.832;4.758;2023-08-17T09:54:30;21.20;99.90
11615;DHT22;5863;52.832;4.758;2023-08-17T09:56:57;21.20;99.90
11615;DHT22;5863;52.832;4.758;2023-08-17T09:59:24;21.30;99.90
11615;DHT22;5863;52.832;4.758;2023-08-17T10:01:51;21.30;99.90
11615;DHT22;5863;52.832;4.758;2023-08-17T10:04:21;21.30;99.90
11615;DHT22;5863;52.832;4.758;2023-08-17T10:06:52;21.50;99.90
11615;DHT22;5863;52.832;4.758;2023-08-17T10:09:25;21.50;99.90
11615;DHT22;5863;52.832;4.758;2023-08-17T10:11:57;21.40;99.90
11615;DHT22;5863;52.832;4.758;2023-08-17T10:14:29;21.30;99.90
11615;DHT22;5863;52.832;4.758;2023-08-17T10:17:01;21.30;99.90
11615;DHT22;5863;52.832;4.758;2023-08-17T10:19:35;21.40;99.90
11615;DHT22;5863;52.832;4.758;2023-08-17T10:22:08;21.50;99.90
11615;DHT22;5863;52.832;4.758;2023-08-17T10:24:37;21.60;99.90
11615;DHT22;5863;52.832;4.758;2023-08-17T10:27:06;21.60;99.90
11615;DHT22;5863;52.832;4.758;2023-08-17T10:29:33;21.80;99.90
11615;DHT22;5863;52.832;4.758;2023-08-17T10:32:01;21.80;99.90
11615;DHT22;5863;52.832;4.758;2023-08-17T10:34:28;21.90;99.90
11615;DHT22;5863;52.832;4.758;2023-08-17T10:36:55;22.00;99.90
11615;DHT22;5863;52.832;4.758;2023-08-17T10:39:25;22.00;99.90
11615;DHT22;5863;52.832;4.758;2023-08-17T10:41:53;22.00;99.90
11615;DHT22;5863;52.832;4.758;2023-08-17T10:44:38;22.10;99.90
11615;DHT22;5863;52.832;4.758;2023-08-17T10:47:22;22.20;99.90
11615;DHT22;5863;52.832;4.758;2023-08-17T10:49:50;22.10;99.90
11615;DHT22;5863;52.832;4.758;2023-08-17T10:52:26;22.10;99.90
11615;DHT22;5863;52.832;4.758;2023-08-17T10:54:53;22.10;99.90
11615;DHT22;5863;52.832;4.758;2023-08-17T10:57:32;22.10;99.90
11615;DHT22;5863;52.832;4.758;2023-08-17T11:00:13;22.10;99.90
11615;DHT22;5863;52.832;4.758;2023-08-17T11:02:42;22.20;99.90
11615;DHT22;5863;52.832;4.758;2023-08-17T11:05:09;22.10;99.90
11615;DHT22;5863;52.832;4.758;2023-08-17T11:07:41;22.10;99.90
11615;DHT22;5863;52.832;4.758;2023-08-17T11:10:11;22.10;99.90
11615;DHT22;5863;52.832;4.758;2023-08-17T11:12:41;22.10;99.90
11615;DHT22;5863;52.832;4.758;2023-08-17T11:15:09;22.20;99.90
11615;DHT22;5863;52.832;4.758;2023-08-17T11:17:36;22.20;99.90
11615;DHT22;5863;52.832;4.758;2023-08-17T11:20:04;22.10;99.90
11615;DHT22;5863;52.832;4.758;2023-08-17T11:22:31;22.20;99.90
11615;DHT22;5863;52.832;4.758;2023-08-17T11:24:58;22.10;99.90
11615;DHT22;5863;52.832;4.758;2023-08-17T11:27:25;22.20;99.90
11615;DHT22;5863;52.832;4.758;2023-08-17T11:29:52;22.20;99.90
11615;DHT22;5863;52.832;4.758;2023-08-17T11:32:20;22.30;99.90
11615;DHT22;5863;52.832;4.758;2023-08-17T11:34:47;22.20;99.90
11615;DHT22;5863;52.832;4.758;2023-08-17T11:37:16;22.20;99.90
11615;DHT22;5863;52.832;4.758;2023-08-17T11:39:43;22.10;99.90
11615;DHT22;5863;52.832;4.758;2023-08-17T11:42:09;22.10;99.90
11615;DHT22;5863;52.832;4.758;2023-08-17T11:44:37;22.00;99.90
11615;DHT22;5863;52.832;4.758;2023-08-17T11:47:04;22.00;99.90
11615;DHT22;5863;52.832;4.758;2023-08-17T11:49:33;22.00;99.90
11615;DHT22;5863;52.832;4.758;2023-08-17T11:51:59;22.00;99.90
11615;DHT22;5863;52.832;4.758;2023-08-17T11:54:26;22.00;99.90
11615;DHT22;5863;52.832;4.758;2023-08-17T11:56:52;22.00;99.90
11615;DHT22;5863;52.832;4.758;2023-08-17T11:59:19;22.00;99.90
11615;DHT22;5863;52.832;4.758;2023-08-17T12:01:56;21.90;99.90
11615;DHT22;5863;52.832;4.758;2023-08-17T12:04:22;21.90;99.90
11615;DHT22;5863;52.832;4.758;2023-08-17T12:06:50;21.90;99.90
11615;DHT22;5863;52.832;4.758;2023-08-17T12:09:18;22.00;99.90
11615;DHT22;5863;52.832;4.758;2023-08-17T12:11:44;22.10;99.90
11615;DHT22;5863;52.832;4.758;2023-08-17T12:14:12;22.10;99.90
11615;DHT22;5863;52.832;4.758;2023-08-17T12:16:45;22.10;99.90
11615;DHT22;5863;52.832;4.758;2023-08-17T12:19:15;22.10;99.90
11615;DHT22;5863;52.832;4.758;2023-08-17T12:21:42;22.10;99.90
11615;DHT22;5863;52.832;4.758;2023-08-17T12:24:09;22.10;99.90
11615;DHT22;5863;52.832;4.758;2023-08-17T12:26:41;22.10;99.90
11615;DHT22;5863;52.832;4.758;2023-08-17T12:29:07;22.20;99.90
11615;DHT22;5863;52.832;4.758;2023-08-17T12:31:34;22.20;99.90
11615;DHT22;5863;52.832;4.758;2023-08-17T12:34:01;22.20;99.90
11615;DHT22;5863;52.832;4.758;2023-08-17T12:36:31;22.20;99.90
11615;DHT22;5863;52.832;4.758;2023-08-17T12:38:57;22.30;99.90
11615;DHT22;5863;52.832;4.758;2023-08-17T12:41:24;22.20;99.90
11615;DHT22;5863;52.832;4.758;2023-08-17T12:43:51;22.20;99.90
11615;DHT22;5863;52.832;4.758;2023-08-17T12:46:19;22.20;99.90
11615;DHT22;5863;52.832;4.758;2023-08-17T12:48:46;22.30;99.90
11615;DHT22;5863;52.832;4.758;2023-08-17T12:51:12;22.30;99.90
11615;DHT22;5863;52.832;4.758;2023-08-17T12:53:41;22.20;99.90
11615;DHT22;5863;52.832;4.758;2023-08-17T12:56:07;22.30;99.90
11615;DHT22;5863;52.832;4.758;2023-08-17T12:58:34;22.30;99.90
11615;DHT22;5863;52.832;4.758;2023-08-17T13:01:01;22.10;99.90
11615;DHT22;5863;52.832;4.758;2023-08-17T13:03:28;22.00;99.90
11615;DHT22;5863;52.832;4.758;2023-08-17T13:05:55;21.90;99.90
11615;DHT22;5863;52.832;4.758;2023-08-17T13:08:22;22.00;99.90
11615;DHT22;5863;52.832;4.758;2023-08-17T13:10:50;21.90;99.90
11615;DHT22;5863;52.832;4.758;2023-08-17T13:13:16;21.80;99.90
11615;DHT22;5863;52.832;4.758;2023-08-17T13:15:43;21.70;99.90
11615;DHT22;5863;52.832;4.758;2023-08-17T13:18:10;21.70;99.90
11615;DHT22;5863;52.832;4.758;2023-08-17T13:20:37;21.70;99.90
11615;DHT22;5863;52.832;4.758;2023-08-17T13:23:05;21.70;99.90
11615;DHT22;5863;52.832;4.758;2023-08-17T13:25:32;21.70;99.90
11615;DHT22;5863;52.832;4.758;2023-08-17T13:28:00;21.60;99.90
11615;DHT22;5863;52.832;4.758;2023-08-17T13:30:27;21.60;99.90
11615;DHT22;5863;52.832;4.758;2023-08-17T13:32:54;21.50;99.90
11615;DHT22;5863;52.832;4.758;2023-08-17T13:35:20;21.40;99.90
11615;DHT22;5863;52.832;4.758;2023-08-17T13:37:51;21.40;99.90
11615;DHT22;5863;52.832;4.758;2023-08-17T13:40:21;21.50;99.90
11615;DHT22;5863;52.832;4.758;2023-08-17T13:42:48;21.60;99.90
11615;DHT22;5863;52.832;4.758;2023-08-17T13:45:16;21.60;99.90
11615;DHT22;5863;52.832;4.758;2023-08-17T13:47:43;21.70;99.90
11615;DHT22;5863;52.832;4.758;2023-08-17T13:50:09;21.70;99.90
11615;DHT22;5863;52.832;4.758;2023-08-17T13:52:36;21.70;99.90
11615;DHT22;5863;52.832;4.758;2023-08-17T13:55:04;21.70;99.90
11615;DHT22;5863;52.832;4.758;2023-08-17T13:57:30;21.70;99.90
11615;DHT22;5863;52.832;4.758;2023-08-17T13:59:57;21.60;99.90
11615;DHT22;5863;52.832;4.758;2023-08-17T14:02:25;21.70;99.90
11615;DHT22;5863;52.832;4.758;2023-08-17T14:04:52;21.70;99.90
11615;DHT22;5863;52.832;4.758;2023-08-17T14:07:18;21.70;99.90
11615;DHT22;5863;52.832;4.758;2023-08-17T14:09:47;21.50;99.90
11615;DHT22;5863;52.832;4.758;2023-08-17T14:12:14;21.50;99.90
11615;DHT22;5863;52.832;4.758;2023-08-17T14:14:40;21.40;99.90
11615;DHT22;5863;52.832;4.758;2023-08-17T14:17:07;21.40;99.90
11615;DHT22;5863;52.832;4.758;2023-08-17T14:19:35;21.30;99.90
11615;DHT22;5863;52.832;4.758;2023-08-17T14:22:01;21.40;99.90
11615;DHT22;5863;52.832;4.758;2023-08-17T14:24:28;21.30;99.90
11615;DHT22;5863;52.832;4.758;2023-08-17T14:26:55;21.20;99.90
11615;DHT22;5863;52.832;4.758;2023-08-17T14:29:23;21.30;99.90
11615;DHT22;5863;52.832;4.758;2023-08-17T14:31:50;21.30;99.90
11615;DHT22;5863;52.832;4.758;2023-08-17T14:34:16;21.30;99.90
11615;DHT22;5863;52.832;4.758;2023-08-17T14:36:46;21.30;99.90
11615;DHT22;5863;52.832;4.758;2023-08-17T14:39:12;21.30;99.90
11615;DHT22;5863;52.832;4.758;2023-08-17T14:41:39;21.30;99.90
11615;DHT22;5863;52.832;4.758;2023-08-17T14:44:06;21.30;99.90
11615;DHT22;5863;52.832;4.758;2023-08-17T14:46:32;21.20;99.90
11615;DHT22;5863;52.832;4.758;2023-08-17T14:49:00;21.10;99.90
11615;DHT22;5863;52.832;4.758;2023-08-17T14:51:28;21.10;99.90
11615;DHT22;5863;52.832;4.758;2023-08-17T14:53:56;21.10;99.90
11615;DHT22;5863;52.832;4.758;2023-08-17T14:56:23;21.10;99.90
11615;DHT22;5863;52.832;4.758;2023-08-17T14:58:49;21.00;99.90
11615;DHT22;5863;52.832;4.758;2023-08-17T15:01:16;21.00;99.90
11615;DHT22;5863;52.832;4.758;2023-08-17T15:03:43;20.90;99.90
11615;DHT22;5863;52.832;4.758;2023-08-17T15:06:09;21.00;99.90
11615;DHT22;5863;52.832;4.758;2023-08-17T15:08:36;21.00;99.90
11615;DHT22;5863;52.832;4.758;2023-08-17T15:11:04;21.00;99.90
11615;DHT22;5863;52.832;4.758;2023-08-17T15:13:31;21.00;99.90
11615;DHT22;5863;52.832;4.758;2023-08-17T15:15:58;21.00;99.90
11615;DHT22;5863;52.832;4.758;2023-08-17T15:18:25;21.00;99.90
11615;DHT22;5863;52.832;4.758;2023-08-17T15:20:51;21.00;99.90
11615;DHT22;5863;52.832;4.758;2023-08-17T15:23:18;21.00;99.90
11615;DHT22;5863;52.832;4.758;2023-08-17T15:25:45;21.00;99.90
11615;DHT22;5863;52.832;4.758;2023-08-17T15:28:13;20.90;99.90
11615;DHT22;5863;52.832;4.758;2023-08-17T15:30:39;20.90;99.90
11615;DHT22;5863;52.832;4.758;2023-08-17T15:33:07;20.90;99.90
11615;DHT22;5863;52.832;4.758;2023-08-17T15:35:34;20.90;99.90
11615;DHT22;5863;52.832;4.758;2023-08-17T15:38:00;20.90;99.90
11615;DHT22;5863;52.832;4.758;2023-08-17T15:40:27;20.90;99.90
11615;DHT22;5863;52.832;4.758;2023-08-17T15:42:54;20.80;99.90
11615;DHT22;5863;52.832;4.758;2023-08-17T15:45:22;20.80;99.90
11615;DHT22;5863;52.832;4.758;2023-08-17T15:47:48;20.80;99.90